Time;durP1;ratioP1;P1;durP2;ratioP2;P2;SDS_P1;SDS_P2;PMS_P1;PMS_P2;Temp;Humidity;BMP_temperature;BMP_pressure;BME280_temperature;BME280_humidity;BME280_pressure;Samples;Min_cycle;Max_cycle;Signal;HPM_P1;HPM_P2
2021/05/31 00:02:29;;;;;;;11.48;9.80;;;;;;;16.07;100.00;101146.69;4917747;29;20115;-76
2021/05/31 00:05:17;;;;;;;10.55;9.13;;;;;;;16.19;100.00;101142.81;4904847;29;20024;-77
2021/05/31 00:08:03;;;;;;;13.05;10.38;;;;;;;16.18;100.00;101133.13;4917889;29;20039;-77
2021/05/31 00:10:49;;;;;;;11.25;10.02;;;;;;;15.94;100.00;101141.88;4904984;29;20115;-77
2021/05/31 00:13:35;;;;;;;14.25;10.20;;;;;;;15.40;100.00;101141.84;4904571;29;20052;-76
2021/05/31 00:16:20;;;;;;;10.52;9.43;;;;;;;15.56;100.00;101142.22;4917557;29;20185;-74
2021/05/31 00:19:07;;;;;;;10.20;9.07;;;;;;;15.78;100.00;101144.16;4921485;29;20119;-75
2021/05/31 00:21:53;;;;;;;12.43;9.93;;;;;;;15.88;100.00;101134.16;4920690;29;20038;-75
2021/05/31 00:24:39;;;;;;;10.38;9.32;;;;;;;15.93;100.00;101137.50;4908212;29;20032;-75
2021/05/31 00:27:25;;;;;;;12.73;10.55;;;;;;;15.87;100.00;101132.44;4921677;29;20347;-75
2021/05/31 00:30:12;;;;;;;11.43;9.85;;;;;;;15.83;100.00;101136.94;4920738;29;20449;-75
2021/05/31 00:32:58;;;;;;;11.15;9.75;;;;;;;15.86;100.00;101130.69;4907521;29;20103;-76
2021/05/31 00:35:44;;;;;;;13.15;10.02;;;;;;;15.85;100.00;101131.59;4914827;29;20039;-74
2021/05/31 00:38:30;;;;;;;11.77;9.93;;;;;;;15.87;100.00;101125.34;4930492;29;20032;-74
2021/05/31 00:41:16;;;;;;;10.82;9.43;;;;;;;15.97;100.00;101126.78;4929492;29;20050;-75
2021/05/31 00:44:02;;;;;;;11.02;9.43;;;;;;;15.81;100.00;101130.84;4929904;29;20056;-75
2021/05/31 00:46:49;;;;;;;11.77;9.50;;;;;;;15.79;100.00;101131.81;4926123;29;20418;-76
2021/05/31 00:49:37;;;;;;;11.57;9.63;;;;;;;15.76;100.00;101122.22;4908993;29;20047;-75
2021/05/31 00:52:23;;;;;;;12.18;10.23;;;;;;;15.74;100.00;101128.44;4912090;29;20039;-74
2021/05/31 00:55:10;;;;;;;16.15;9.88;;;;;;;15.40;100.00;101133.94;4914818;29;20036;-74
2021/05/31 00:57:56;;;;;;;12.23;10.27;;;;;;;15.53;100.00;101132.63;4927413;29;20480;-74
2021/05/31 01:00:45;;;;;;;10.32;9.23;;;;;;;15.67;100.00;101116.34;4922953;29;20042;-75
2021/05/31 01:03:32;;;;;;;11.30;9.63;;;;;;;15.28;100.00;101121.06;4921819;29;20028;-75
2021/05/31 01:06:23;;;;;;;12.38;9.80;;;;;;;15.38;100.00;101119.03;4921021;29;20039;-75
2021/05/31 01:09:18;;;;;;;10.35;8.90;;;;;;;15.43;100.00;101117.97;4921027;29;20047;-74
2021/05/31 01:12:14;;;;;;;10.32;8.82;;;;;;;15.54;100.00;101118.50;4920980;29;20044;-76
2021/05/31 01:15:11;;;;;;;9.55;8.20;;;;;;;15.52;100.00;101107.13;4920978;29;20139;-76
2021/05/31 01:18:38;;;;;;;10.60;9.32;;;;;;;15.68;100.00;101110.16;4920440;29;20040;-76
2021/05/31 01:21:46;;;;;;;10.43;8.85;;;;;;;15.73;100.00;101103.81;4920243;29;20032;-76
2021/05/31 01:24:50;;;;;;;11.15;8.40;;;;;;;15.76;100.00;101106.34;4920904;29;20099;-77
2021/05/31 01:27:49;;;;;;;11.02;8.73;;;;;;;15.87;100.00;101101.56;4919469;29;20031;-76
2021/05/31 01:30:39;;;;;;;11.57;9.23;;;;;;;15.98;100.00;101098.56;4907253;29;20028;-76
2021/05/31 01:33:32;;;;;;;13.43;10.60;;;;;;;15.71;100.00;101099.50;4906627;29;20043;-77
2021/05/31 01:36:22;;;;;;;11.50;9.80;;;;;;;15.79;100.00;101100.94;4919654;29;20039;-76
2021/05/31 01:39:08;;;;;;;11.10;9.00;;;;;;;15.59;100.00;101097.25;4920505;29;20023;-76
2021/05/31 01:41:55;;;;;;;11.07;9.07;;;;;;;15.66;100.00;101106.69;4921328;29;20024;-76
2021/05/31 01:44:43;;;;;;;9.90;8.73;;;;;;;15.77;100.00;101099.28;4920355;29;20052;-77
2021/05/31 01:47:30;;;;;;;11.50;8.45;;;;;;;15.70;100.00;101093.34;4907877;29;20031;-74
2021/05/31 01:50:17;;;;;;;11.32;8.57;;;;;;;15.85;100.00;101089.31;4906570;29;20033;-76
2021/05/31 01:53:04;;;;;;;10.25;8.02;;;;;;;15.70;100.00;101095.97;4920511;29;20394;-75
2021/05/31 01:55:51;;;;;;;9.77;8.25;;;;;;;15.62;100.00;101099.75;4920083;29;20365;-75
2021/05/31 01:58:39;;;;;;;10.73;8.50;;;;;;;15.65;100.00;101094.38;4920628;29;20032;-75
2021/05/31 02:01:26;;;;;;;12.02;8.10;;;;;;;15.56;100.00;101094.69;4920320;29;20102;-75
2021/05/31 02:04:12;;;;;;;12.27;9.30;;;;;;;15.68;100.00;101092.53;4920019;29;20032;-74
2021/05/31 02:06:58;;;;;;;9.52;7.60;;;;;;;15.42;100.00;101091.59;4920479;29;20028;-75
2021/05/31 02:09:45;;;;;;;9.63;6.72;;;;;;;15.45;100.00;101096.78;4905988;29;20342;-75
2021/05/31 02:12:37;;;;;;;7.90;6.93;;;;;;;15.40;100.00;101112.81;4920036;29;20032;-76
2021/05/31 02:15:52;;;;;;;9.23;7.63;;;;;;;15.60;100.00;101104.25;4919935;29;20458;-76
2021/05/31 02:18:42;;;;;;;10.77;7.38;;;;;;;15.38;100.00;101097.91;4919927;29;20046;-75
2021/05/31 02:21:30;;;;;;;9.35;7.05;;;;;;;15.17;100.00;101102.03;4919112;29;20020;-75
2021/05/31 02:24:18;;;;;;;7.97;6.75;;;;;;;15.18;100.00;101102.91;4919588;29;20032;-75
2021/05/31 02:27:05;;;;;;;10.07;7.18;;;;;;;15.16;100.00;101096.78;4905800;29;20032;-75
2021/05/31 02:29:51;;;;;;;8.70;6.68;;;;;;;15.13;100.00;101099.53;4905989;29;20036;-75
2021/05/31 02:32:37;;;;;;;10.90;8.25;;;;;;;15.24;100.00;101103.59;4919451;29;20442;-75
2021/05/31 02:35:25;;;;;;;10.27;7.43;;;;;;;14.84;100.00;101103.88;4919886;29;20131;-75
2021/05/31 02:38:10;;;;;;;9.02;7.25;;;;;;;14.46;100.00;101096.19;4919640;29;20047;-75
2021/05/31 02:40:56;;;;;;;10.55;7.82;;;;;;;14.76;100.00;101097.94;4919494;29;20437;-75
2021/05/31 02:43:42;;;;;;;11.75;7.97;;;;;;;14.79;100.00;101097.88;4905607;29;20035;-75
2021/05/31 02:46:28;;;;;;;10.23;7.65;;;;;;;15.02;100.00;101109.56;4919518;29;20028;-75
2021/05/31 02:49:14;;;;;;;10.35;8.15;;;;;;;14.92;100.00;101106.31;4906805;29;20035;-75
2021/05/31 02:51:59;;;;;;;11.68;7.68;;;;;;;14.91;100.00;101109.84;4917737;29;20055;-76
2021/05/31 02:54:45;;;;;;;11.52;8.00;;;;;;;15.18;100.00;101111.66;4905549;29;20047;-75
2021/05/31 02:57:31;;;;;;;12.85;7.95;;;;;;;15.16;100.00;101104.72;4919035;29;20032;-76
2021/05/31 03:00:20;;;;;;;9.38;7.80;;;;;;;15.38;100.00;101111.13;4920150;29;20087;-75
2021/05/31 03:03:06;;;;;;;11.75;8.18;;;;;;;15.18;100.00;101106.38;4918923;29;20028;-76
2021/05/31 03:05:51;;;;;;;10.00;7.57;;;;;;;14.95;100.00;101108.00;4919170;29;20453;-75
2021/05/31 03:08:37;;;;;;;13.38;8.40;;;;;;;15.39;100.00;101112.84;4918893;29;20468;-76
2021/05/31 03:11:23;;;;;;;8.95;7.18;;;;;;;14.94;100.00;101108.91;4905855;29;20445;-75
2021/05/31 03:14:09;;;;;;;15.90;7.32;;;;;;;14.49;100.00;101113.69;4905600;29;20199;-74
2021/05/31 03:16:55;;;;;;;8.77;6.57;;;;;;;14.68;100.00;101121.03;4904994;29;20062;-74
2021/05/31 03:19:40;;;;;;;9.25;7.05;;;;;;;14.47;100.00;101116.34;4918738;29;20091;-75
2021/05/31 03:22:26;;;;;;;11.23;7.80;;;;;;;15.05;100.00;101107.69;4918005;29;20036;-76
2021/05/31 03:25:12;;;;;;;10.77;7.75;;;;;;;14.80;100.00;101112.78;4919108;29;20036;-75
2021/05/31 03:27:59;;;;;;;9.40;7.05;;;;;;;14.65;100.00;101113.25;4917849;29;20419;-75
2021/05/31 03:30:44;;;;;;;9.98;6.75;;;;;;;14.34;100.00;101112.31;4918609;29;20521;-75
2021/05/31 03:33:30;;;;;;;12.00;7.45;;;;;;;14.25;100.00;101122.25;4917557;29;20036;-74
2021/05/31 03:36:16;;;;;;;9.57;7.75;;;;;;;14.32;100.00;101124.66;4917725;29;20024;-75
2021/05/31 03:39:04;;;;;;;8.45;6.90;;;;;;;14.79;100.00;101118.09;4904642;29;20434;-75
2021/05/31 03:41:50;;;;;;;11.15;7.65;;;;;;;14.77;100.00;101115.53;4904555;29;20024;-74
2021/05/31 03:44:36;;;;;;;9.32;7.13;;;;;;;14.36;100.00;101122.84;4918739;29;20446;-75
2021/05/31 03:47:21;;;;;;;9.48;7.53;;;;;;;14.96;100.00;101117.63;4919283;29;20102;-75
2021/05/31 03:50:08;;;;;;;9.15;7.53;;;;;;;14.62;100.00;101118.59;4918537;29;20059;-75
2021/05/31 03:52:54;;;;;;;10.68;7.75;;;;;;;15.16;100.00;101123.19;4919473;29;20031;-75
2021/05/31 03:55:39;;;;;;;11.20;7.88;;;;;;;15.38;100.00;101106.69;4909847;29;20032;-75
2021/05/31 03:58:25;;;;;;;7.50;6.60;;;;;;;15.50;100.00;101108.94;4908323;29;20036;-75
2021/05/31 04:01:12;;;;;;;8.75;6.63;;;;;;;15.30;100.00;101113.09;4923245;29;20094;-75
2021/05/31 04:03:58;;;;;;;9.55;7.30;;;;;;;14.31;100.00;101117.66;4921451;29;20032;-75
2021/05/31 04:12:37;;;;;;;10.82;7.68;;;;;;;15.00;100.00;101122.78;4921898;29;20055;-76
2021/05/31 04:15:23;;;;;;;8.85;7.43;;;;;;;15.36;100.00;101116.44;4923517;29;20035;-76
2021/05/31 04:18:09;;;;;;;7.85;6.30;;;;;;;14.78;100.00;101111.09;4921771;29;20485;-75
2021/05/31 04:20:55;;;;;;;10.35;6.75;;;;;;;15.32;100.00;101113.91;4907570;29;20083;-76
2021/05/31 04:23:41;;;;;;;8.82;6.82;;;;;;;15.10;100.00;101118.94;4908899;29;20051;-75
2021/05/31 04:26:26;;;;;;;10.02;6.72;;;;;;;15.28;100.00;101109.63;4908000;29;20043;-76
2021/05/31 04:29:14;;;;;;;9.15;6.40;;;;;;;14.97;100.00;101114.94;4921965;29;20024;-76
2021/05/31 04:32:02;;;;;;;10.38;7.97;;;;;;;14.98;100.00;101114.03;4921578;29;20028;-76
2021/05/31 04:34:48;;;;;;;10.10;7.32;;;;;;;15.49;100.00;101111.63;4921666;29;20438;-76
2021/05/31 04:37:34;;;;;;;12.75;6.80;;;;;;;15.37;100.00;101114.66;4921986;29;20071;-76
2021/05/31 04:40:20;;;;;;;11.77;7.57;;;;;;;15.28;100.00;101109.63;4907418;29;20143;-76
2021/05/31 04:43:05;;;;;;;10.55;7.50;;;;;;;14.49;100.00;101114.56;4907457;29;20092;-75
2021/05/31 04:45:51;;;;;;;10.95;7.72;;;;;;;15.18;100.00;101118.75;4907489;29;20421;-75
2021/05/31 04:48:37;;;;;;;10.02;7.18;;;;;;;15.00;100.00;101117.50;4922064;29;20039;-75
2021/05/31 04:51:24;;;;;;;12.18;7.13;;;;;;;14.93;100.00;101115.94;4920845;29;20450;-76
2021/05/31 04:54:10;;;;;;;9.63;7.47;;;;;;;15.23;100.00;101106.25;4921296;29;20441;-75
2021/05/31 04:56:56;;;;;;;10.30;8.40;;;;;;;15.35;100.00;101109.41;4907678;29;20028;-75
2021/05/31 04:59:41;;;;;;;12.80;8.27;;;;;;;15.35;100.00;101105.94;4921457;29;20032;-76
2021/05/31 05:02:27;;;;;;;9.13;7.47;;;;;;;15.01;100.00;101106.03;4908360;29;20365;-76
2021/05/31 05:05:13;;;;;;;11.45;8.57;;;;;;;14.64;100.00;101108.84;4921708;29;20039;-75
2021/05/31 05:07:59;;;;;;;12.10;7.70;;;;;;;14.82;100.00;101108.34;4921437;29;20040;-76
2021/05/31 05:10:45;;;;;;;11.57;8.68;;;;;;;15.03;100.00;101113.91;4921044;29;20068;-76
2021/05/31 05:13:31;;;;;;;10.00;8.23;;;;;;;15.64;100.00;101117.31;4920769;29;20075;-77
2021/05/31 05:16:17;;;;;;;12.05;8.48;;;;;;;14.88;100.00;101113.44;4920644;29;20088;-77
2021/05/31 05:19:02;;;;;;;10.25;7.20;;;;;;;15.25;100.00;101118.50;4921260;29;20119;-77
2021/05/31 05:21:48;;;;;;;12.68;8.13;;;;;;;15.15;100.00;101110.91;4920473;29;20373;-77
2021/05/31 05:24:34;;;;;;;13.98;8.15;;;;;;;15.28;100.00;101117.53;4921191;29;20039;-76
2021/05/31 05:27:20;;;;;;;12.05;8.82;;;;;;;14.75;100.00;101119.09;4906816;29;20024;-77
2021/05/31 05:30:06;;;;;;;13.27;9.88;;;;;;;15.41;100.00;101124.22;4907586;29;20028;-77
2021/05/31 05:32:59;;;;;;;12.57;9.60;;;;;;;15.37;100.00;101119.94;4920383;29;20039;-77
2021/05/31 05:35:52;;;;;;;10.20;7.65;;;;;;;14.54;100.00;101120.56;4921045;29;20031;-76
2021/05/31 05:41:54;;;;;;;12.48;8.30;;;;;;;15.20;100.00;101117.78;4935860;29;20036;-77
2021/05/31 05:47:46;;;;;;;8.60;7.50;;;;;;;15.29;100.00;101119.25;4924064;29;20100;-76
2021/05/31 05:50:32;;;;;;;11.20;7.30;;;;;;;15.48;100.00;101113.44;4931529;29;20028;-75
2021/05/31 05:53:17;;;;;;;8.25;6.60;;;;;;;15.36;100.00;101112.94;4919676;29;20028;-76
2021/05/31 05:56:08;;;;;;;8.50;7.00;;;;;;;15.67;100.00;101111.06;4929268;29;20032;-76
2021/05/31 05:58:56;;;;;;;10.85;6.50;;;;;;;15.76;100.00;101108.13;4921205;29;20032;-76
2021/05/31 06:01:43;;;;;;;7.85;6.88;;;;;;;15.74;100.00;101108.16;4919743;29;20146;-77
2021/05/31 06:04:29;;;;;;;7.60;6.80;;;;;;;15.56;100.00;101102.63;4906318;29;20192;-77
2021/05/31 06:07:15;;;;;;;7.85;6.45;;;;;;;15.03;100.00;101101.56;4906587;29;20024;-77
2021/05/31 06:10:01;;;;;;;8.13;6.88;;;;;;;15.35;100.00;101096.22;4919899;29;20060;-77
2021/05/31 06:12:47;;;;;;;7.30;6.60;;;;;;;15.45;100.00;101099.44;4919410;29;20055;-76
2021/05/31 06:15:33;;;;;;;8.45;7.03;;;;;;;15.63;100.00;101096.22;4917809;29;20027;-76
2021/05/31 06:18:19;;;;;;;8.05;6.68;;;;;;;15.75;100.00;101101.13;4905837;29;20036;-76
2021/05/31 06:21:05;;;;;;;9.48;6.90;;;;;;;15.70;100.00;101098.63;4919717;29;20087;-76
2021/05/31 06:23:51;;;;;;;8.32;7.18;;;;;;;16.05;100.00;101092.16;4919399;29;20090;-76
2021/05/31 06:26:37;;;;;;;7.68;6.72;;;;;;;16.18;100.00;101099.63;4919185;29;20035;-76
2021/05/31 06:29:22;;;;;;;8.52;7.38;;;;;;;15.90;100.00;101093.53;4905799;29;20035;-76
2021/05/31 06:32:08;;;;;;;8.52;6.78;;;;;;;15.80;100.00;101101.81;4918756;29;20135;-77
2021/05/31 06:34:54;;;;;;;9.40;6.90;;;;;;;15.54;100.00;101101.78;4905944;29;20055;-76
2021/05/31 06:37:40;;;;;;;9.18;7.45;;;;;;;15.16;100.00;101104.72;4918121;29;20055;-76
2021/05/31 06:40:26;;;;;;;7.90;7.10;;;;;;;15.14;100.00;101109.19;4919293;29;20020;-76
2021/05/31 06:43:12;;;;;;;10.73;7.60;;;;;;;15.73;100.00;101103.81;4918033;29;20043;-76
2021/05/31 06:45:59;;;;;;;11.27;8.95;;;;;;;16.03;100.00;101100.13;4919007;29;20032;-77
2021/05/31 06:48:45;;;;;;;12.18;8.35;;;;;;;15.85;100.00;101107.81;4905080;29;20067;-75
2021/05/31 06:51:32;;;;;;;8.95;7.97;;;;;;;16.00;100.00;101109.97;4905539;29;20032;-75
2021/05/31 06:54:18;;;;;;;7.57;6.70;;;;;;;16.04;100.00;101107.16;4919485;29;20102;-76
2021/05/31 06:57:03;;;;;;;10.73;7.47;;;;;;;16.23;100.00;101102.97;4918518;29;20036;-76
2021/05/31 06:59:49;;;;;;;11.05;8.45;;;;;;;16.50;100.00;101096.75;4917760;29;20104;-74
2021/05/31 07:02:35;;;;;;;9.23;7.60;;;;;;;16.20;100.00;101099.59;4919596;29;20032;-76
2021/05/31 07:05:21;;;;;;;7.57;6.47;;;;;;;16.39;100.00;101105.97;4919017;29;20028;-75
2021/05/31 07:08:07;;;;;;;9.30;6.85;;;;;;;16.65;100.00;101100.63;4918670;29;20489;-77
2021/05/31 07:10:56;;;;;;;8.93;7.20;;;;;;;16.13;100.00;101100.69;4918597;29;20480;-76
2021/05/31 07:13:46;;;;;;;8.27;6.88;;;;;;;16.03;100.00;101108.06;4918489;29;20048;-75
2021/05/31 07:16:33;;;;;;;9.35;7.38;;;;;;;16.14;100.00;101105.06;4905870;29;20035;-76
2021/05/31 07:19:20;;;;;;;8.57;7.13;;;;;;;16.06;100.00;101102.69;4919237;29;20120;-77
2021/05/31 08:20:12;;;;;;;11.70;8.73;;;;;;;15.65;100.00;101113.75;4879365;29;20048;-75
2021/05/31 08:22:57;;;;;;;11.15;8.75;;;;;;;15.96;100.00;101119.78;4879591;29;20037;-75
2021/05/31 08:25:44;;;;;;;9.98;7.82;;;;;;;16.26;100.00;101115.22;4879809;29;20458;-76
2021/05/31 08:28:30;;;;;;;9.73;8.27;;;;;;;16.33;100.00;101117.63;4892846;29;20033;-78
2021/05/31 08:31:16;;;;;;;8.55;7.65;;;;;;;16.18;100.00;101101.41;4880323;29;20418;-76
2021/05/31 08:34:02;;;;;;;10.20;9.02;;;;;;;16.00;100.00;101110.84;4880047;29;20071;-76
2021/05/31 08:36:48;;;;;;;12.95;10.75;;;;;;;16.15;100.00;101112.09;4892476;29;20136;-76
2021/05/31 08:39:33;;;;;;;12.35;9.95;;;;;;;15.49;100.00;101119.56;4882016;29;20044;-75
2021/05/31 08:42:22;;;;;;;13.82;12.00;;;;;;;16.08;100.00;101115.84;4883376;29;20040;-78
2021/05/31 08:45:12;;;;;;;13.00;10.63;;;;;;;15.96;100.00;101111.84;4883221;29;20374;-76
2021/05/31 08:47:59;;;;;;;12.85;10.52;;;;;;;15.59;100.00;101121.00;4883268;29;20036;-75
2021/05/31 08:50:45;;;;;;;10.45;8.90;;;;;;;15.40;100.00;101119.84;4882500;29;20055;-76
2021/05/31 08:53:30;;;;;;;10.80;9.65;;;;;;;15.58;100.00;101124.53;4883649;29;20048;-75
2021/05/31 08:56:17;;;;;;;11.35;10.13;;;;;;;16.11;100.00;101115.75;4883236;29;20546;-76
2021/05/31 08:59:04;;;;;;;10.55;9.10;;;;;;;15.73;100.00;101124.06;4882678;29;20097;-76
2021/05/31 09:01:51;;;;;;;10.40;9.18;;;;;;;15.54;100.00;101125.56;4882711;29;20025;-76
2021/05/31 09:04:50;;;;;;;9.73;8.75;;;;;;;15.41;100.00;101127.72;4883271;29;20035;-75
2021/05/31 09:07:37;;;;;;;13.65;11.27;;;;;;;16.02;100.00;101119.56;4883611;29;20103;-77
2021/05/31 09:10:24;;;;;;;14.63;12.30;;;;;;;16.15;100.00;101112.09;4883320;29;20052;-77
2021/05/31 09:13:12;;;;;;;13.52;10.63;;;;;;;16.01;100.00;101106.41;4882914;29;20029;-76
2021/05/31 09:16:26;;;;;;;15.20;12.50;;;;;;;16.20;100.00;101110.16;4883328;29;20374;-76
2021/05/31 09:19:12;;;;;;;11.68;10.15;;;;;;;15.72;100.00;101106.50;4882312;29;20510;-75
2021/05/31 09:22:03;;;;;;;12.65;10.95;;;;;;;15.78;100.00;101111.56;4882214;29;20044;-78
2021/05/31 09:25:01;;;;;;;10.88;9.57;;;;;;;15.63;100.00;101112.09;4883011;29;20029;-77
2021/05/31 09:27:51;;;;;;;11.57;10.38;;;;;;;15.68;100.00;101113.66;4882485;29;20052;-76
2021/05/31 09:30:44;;;;;;;28.45;24.40;;;;;;;15.62;100.00;101126.19;4894103;29;20514;-76
2021/05/31 09:33:30;;;;;;;17.60;14.05;;;;;;;15.97;100.00;101128.56;4882115;29;20106;-77
2021/05/31 09:36:16;;;;;;;14.63;13.10;;;;;;;15.65;100.00;101131.38;4882771;29;20510;-74
2021/05/31 09:39:05;;;;;;;14.75;12.43;;;;;;;16.03;100.00;101123.94;4882553;29;20426;-75
2021/05/31 09:42:01;;;;;;;13.80;11.88;;;;;;;15.62;100.00;101124.41;4882385;29;20402;-77
2021/05/31 09:45:00;;;;;;;17.50;15.38;;;;;;;16.07;100.00;101128.19;4882239;29;20040;-77
2021/05/31 09:47:47;;;;;;;15.32;12.93;;;;;;;16.30;100.00;101124.78;4882227;29;20044;-74
2021/05/31 09:50:33;;;;;;;14.18;12.63;;;;;;;15.76;100.00;101114.28;4882153;29;20032;-76
2021/05/31 09:53:18;;;;;;;18.40;14.05;;;;;;;15.79;100.00;101113.31;4881804;29;20518;-75
2021/05/31 09:56:17;;;;;;;17.00;13.45;;;;;;;16.01;100.00;101111.69;4881689;29;20044;-76
2021/05/31 09:59:05;;;;;;;13.82;12.40;;;;;;;16.16;100.00;101109.38;4882171;29;20478;-77
2021/05/31 10:01:55;;;;;;;10.82;9.63;;;;;;;16.07;100.00;101101.78;4881615;29;20029;-76
2021/05/31 10:05:06;;;;;;;13.45;11.48;;;;;;;16.15;100.00;101105.00;4895520;29;20025;-77
2021/05/31 10:10:43;;;;;;;10.27;9.23;;;;;;;16.19;100.00;101103.16;4881398;29;20115;-76
2021/05/31 10:13:29;;;;;;;11.60;10.43;;;;;;;16.32;100.00;101102.66;4881962;29;20024;-77
2021/05/31 10:16:15;;;;;;;15.07;11.15;;;;;;;16.57;100.00;101100.94;4881905;29;20040;-76
2021/05/31 10:19:01;;;;;;;11.98;10.77;;;;;;;16.67;100.00;101104.06;4881400;29;20120;-76
2021/05/31 10:21:47;;;;;;;11.10;9.75;;;;;;;17.26;100.00;101100.06;4881345;29;20202;-76
2021/05/31 10:24:34;;;;;;;9.20;8.25;;;;;;;17.35;100.00;101091.75;4882026;29;20029;-76
2021/05/31 10:27:20;;;;;;;10.15;9.13;;;;;;;16.93;100.00;101075.75;4893653;29;20063;-76
2021/05/31 10:30:08;;;;;;;9.82;8.40;;;;;;;16.71;100.00;101080.09;4894350;29;20041;-77
2021/05/31 10:32:57;;;;;;;8.40;7.50;;;;;;;17.37;100.00;101079.34;4881754;29;20060;-77
2021/05/31 10:35:44;;;;;;;7.32;6.63;;;;;;;17.44;100.00;101067.63;4894963;29;20028;-77
2021/05/31 10:38:36;;;;;;;11.35;8.68;;;;;;;17.80;100.00;101068.78;4894855;29;20037;-77
2021/05/31 10:41:23;;;;;;;8.88;7.43;;;;;;;17.51;100.00;101067.28;4899183;29;20081;-74
2021/05/31 10:44:16;;;;;;;6.22;3.95;;;;;;;17.16;100.00;101059.84;4899239;29;20041;-76
2021/05/31 10:47:12;;;;;;;5.75;5.00;;;;;;;17.97;100.00;101055.66;4898058;29;20025;-77
2021/05/31 10:50:01;;;;;;;5.78;5.20;;;;;;;18.71;100.00;101050.59;4891206;29;20126;-75
2021/05/31 10:52:51;;;;;;;6.00;5.45;;;;;;;18.26;100.00;101056.16;4900474;29;20052;-76
2021/05/31 10:55:52;;;;;;;5.90;5.30;;;;;;;18.57;100.00;101048.56;4897089;29;20028;-76
2021/05/31 10:58:49;;;;;;;6.22;5.50;;;;;;;17.70;100.00;101051.50;4897225;29;20029;-74
2021/05/31 11:01:39;;;;;;;5.03;4.63;;;;;;;17.97;100.00;101039.75;4895616;29;20499;-78
2021/05/31 11:04:26;;;;;;;5.65;5.15;;;;;;;17.31;100.00;101037.19;4881600;29;20104;-77
2021/05/31 11:07:25;;;;;;;6.13;5.50;;;;;;;16.91;100.00;101051.13;4881599;29;20321;-76
2021/05/31 11:10:19;;;;;;;5.65;4.13;;;;;;;16.62;100.00;101055.75;4881025;29;20029;-77
2021/05/31 11:13:23;;;;;;;4.50;4.10;;;;;;;17.21;100.00;101046.44;4881597;29;20124;-74
2021/05/31 11:16:09;;;;;;;4.15;3.75;;;;;;;17.04;100.00;101039.13;4881143;29;20490;-74
2021/05/31 11:18:59;;;;;;;3.90;3.50;;;;;;;17.67;100.00;101033.06;4881066;29;20057;-76
2021/05/31 11:21:45;;;;;;;5.38;3.92;;;;;;;17.62;100.00;101033.28;4881116;29;20043;-76
2021/05/31 11:24:31;;;;;;;5.25;3.40;;;;;;;17.76;100.00;101032.72;4881658;29;20043;-77
2021/05/31 11:27:21;;;;;;;4.18;3.40;;;;;;;18.01;100.00;101028.09;4880910;29;20089;-78
2021/05/31 11:30:34;;;;;;;4.32;3.45;;;;;;;17.79;100.00;101029.91;4893750;29;20084;-74
2021/05/31 11:33:20;;;;;;;4.00;3.60;;;;;;;17.84;100.00;101020.00;4880951;29;20088;-75
2021/05/31 11:36:09;;;;;;;7.05;4.00;;;;;;;18.23;100.00;101015.63;4876539;29;20029;-76
2021/05/31 11:38:55;;;;;;;7.05;4.05;;;;;;;17.89;100.00;101021.50;4871202;29;20048;-76
2021/05/31 11:41:44;;;;;;;5.05;4.30;;;;;;;18.06;100.00;101024.31;4872592;29;20049;-74
2021/05/31 11:44:30;;;;;;;4.72;4.22;;;;;;;17.88;100.00;101029.56;4869884;29;20100;-75
2021/05/31 11:47:23;;;;;;;4.53;3.67;;;;;;;18.02;100.00;101020.06;4873905;29;20148;-76
2021/05/31 11:50:17;;;;;;;4.40;4.00;;;;;;;17.69;100.00;101018.00;4870262;29;20113;-76
2021/05/31 11:53:03;;;;;;;4.60;3.70;;;;;;;17.52;100.00;101009.88;4871152;29;20466;-76
2021/05/31 11:55:49;;;;;;;4.35;3.63;;;;;;;17.55;100.00;101012.38;4884500;29;20061;-76
2021/05/31 11:58:45;;;;;;;4.15;3.40;;;;;;;17.68;100.00;101014.47;4883517;29;20148;-76
2021/05/31 12:01:31;;;;;;;4.75;3.72;;;;;;;18.15;100.00;101007.13;4870609;29;20029;-76
2021/05/31 12:04:20;;;;;;;4.15;3.55;;;;;;;18.14;100.00;101000.13;4880146;29;20041;-75
2021/05/31 12:07:11;;;;;;;4.15;3.75;;;;;;;18.17;100.00;100998.16;4873010;29;20362;-76
2021/05/31 12:09:57;;;;;;;6.25;3.80;;;;;;;17.82;100.00;100996.22;4871017;29;20097;-76
2021/05/31 12:12:47;;;;;;;3.85;3.38;;;;;;;17.75;100.00;100992.09;4872489;29;20057;-75
2021/05/31 12:15:35;;;;;;;4.13;3.78;;;;;;;17.66;100.00;100995.13;4881565;29;20025;-76
2021/05/31 12:18:21;;;;;;;4.57;3.97;;;;;;;18.11;100.00;100987.84;4875753;29;20116;-74
2021/05/31 12:21:06;;;;;;;5.15;4.50;;;;;;;17.59;100.00;100988.34;4874398;29;20065;-76
2021/05/31 12:23:52;;;;;;;6.22;5.35;;;;;;;17.79;100.00;100992.81;4876933;29;20088;-76
2021/05/31 12:26:39;;;;;;;6.78;5.50;;;;;;;18.13;100.00;100985.97;4875208;29;20063;-76
2021/05/31 12:29:36;;;;;;;5.60;5.10;;;;;;;17.16;100.00;100991.00;4875079;29;20043;-76
2021/05/31 12:32:25;;;;;;;5.05;4.50;;;;;;;17.56;100.00;100979.69;4876857;29;20059;-76
2021/05/31 12:35:12;;;;;;;5.72;5.03;;;;;;;17.98;100.00;100981.38;4876160;29;20041;-76
2021/05/31 12:37:57;;;;;;;4.25;3.85;;;;;;;17.62;100.00;100984.72;4875452;29;20033;-75
2021/05/31 12:40:43;;;;;;;5.07;4.35;;;;;;;17.82;100.00;100984.72;4874942;29;20039;-75
2021/05/31 12:43:32;;;;;;;8.50;7.38;;;;;;;17.92;100.00;100986.06;4887928;29;20059;-76
2021/05/31 12:46:19;;;;;;;4.97;3.33;;;;;;;17.32;100.00;100981.50;4875603;29;20440;-76
2021/05/31 12:49:06;;;;;;;2.67;2.47;;;;;;;16.61;100.00;100991.44;4874646;29;20378;-77
2021/05/31 12:51:58;;;;;;;3.13;2.83;;;;;;;17.19;100.00;100984.72;4881930;29;20223;-77
2021/05/31 12:54:43;;;;;;;2.55;2.35;;;;;;;17.29;100.00;100984.31;4875551;29;20132;-76
2021/05/31 12:57:41;;;;;;;2.80;2.30;;;;;;;16.41;100.00;100988.66;4873396;29;20032;-75
2021/05/31 13:00:32;;;;;;;3.05;2.75;;;;;;;17.20;100.00;100970.56;4875171;29;20116;-76
2021/05/31 13:03:18;;;;;;;4.90;4.40;;;;;;;17.06;100.00;100970.25;4875620;29;20484;-75
2021/05/31 13:06:05;;;;;;;4.93;3.45;;;;;;;16.96;100.00;100971.53;4874612;29;20072;-75
2021/05/31 13:08:51;;;;;;;5.20;4.68;;;;;;;17.54;100.00;100966.50;4878685;29;20069;-75
2021/05/31 13:11:45;;;;;;;4.63;4.00;;;;;;;17.70;100.00;100951.69;4874572;29;20037;-74
2021/05/31 13:14:31;;;;;;;6.63;4.85;;;;;;;17.58;100.00;100959.28;4876119;29;20029;-75
2021/05/31 13:17:16;;;;;;;6.28;5.68;;;;;;;17.06;100.00;100942.00;4877477;29;20052;-76
2021/05/31 13:20:12;;;;;;;11.38;10.18;;;;;;;17.44;100.00;100937.81;4885844;29;20035;-76
2021/05/31 13:23:09;;;;;;;6.28;5.70;;;;;;;17.03;100.00;100933.28;4873494;29;20024;-74
2021/05/31 13:25:56;;;;;;;5.85;4.97;;;;;;;17.03;100.00;100925.34;4875728;29;20061;-76
2021/05/31 13:28:43;;;;;;;6.45;5.05;;;;;;;17.55;100.00;100911.69;4872719;29;20037;-74
2021/05/31 13:31:31;;;;;;;6.50;4.68;;;;;;;17.62;100.00;100915.81;4873023;29;20041;-75
2021/05/31 13:34:17;;;;;;;8.38;5.72;;;;;;;17.83;100.00;100912.22;4875005;29;20044;-75
2021/05/31 13:37:11;;;;;;;8.57;5.78;;;;;;;18.04;100.00;100908.63;4875016;29;20116;-76
2021/05/31 13:39:58;;;;;;;8.07;5.60;;;;;;;17.61;100.00;100909.66;4874496;29;20072;-75
2021/05/31 13:42:58;;;;;;;5.32;4.57;;;;;;;17.45;100.00;100910.38;4874654;29;20048;-76
2021/05/31 13:45:55;;;;;;;6.50;5.30;;;;;;;17.42;100.00;100913.16;4875983;29;20044;-75
2021/05/31 13:48:40;;;;;;;8.38;5.50;;;;;;;17.76;100.00;100909.00;4873348;29;20143;-75
2021/05/31 13:51:29;;;;;;;5.35;4.70;;;;;;;18.42;100.00;100906.00;4876312;29;20029;-72
2021/05/31 13:54:16;;;;;;;6.13;5.13;;;;;;;18.42;100.00;100899.81;4887570;29;20033;-74
2021/05/31 13:57:05;;;;;;;5.57;5.07;;;;;;;18.14;100.00;100904.63;4884965;29;20052;-74
2021/05/31 13:59:51;;;;;;;8.32;5.75;;;;;;;18.42;100.00;100899.81;4873332;29;20045;-75
2021/05/31 14:02:37;;;;;;;6.68;5.05;;;;;;;17.85;100.00;100905.09;4874012;29;20025;-74